Time;durP1;ratioP1;P1;durP2;ratioP2;P2;SDS_P1;SDS_P2;PMS_P1;PMS_P2;Temp;Humidity;BMP_temperature;BMP_pressure;BME280_temperature;BME280_humidity;BME280_pressure;Samples;Min_cycle;Max_cycle;Signal;HPM_P1;HPM_P2
2023/11/16 06:46:15;;;;;;;4.57;1.50;;;;;;;;;;10588726;27;20113;-82
2023/11/16 06:51:17;;;;;;;4.03;2.15;;;;;;;;;;10586208;28;20437;-82
2023/11/16 06:56:18;;;;;;;2.90;1.60;;;;;;;;;;10585620;28;20016;-81
2023/11/16 07:01:19;;;;;;;3.78;2.00;;;;;;;;;;10582793;28;20028;-82
2023/11/16 07:06:20;;;;;;;4.32;2.13;;;;;;;;;;10582679;28;20098;-81
2023/11/16 07:11:21;;;;;;;4.25;2.17;;;;;;;;;;10581580;28;20038;-81
2023/11/16 07:16:22;;;;;;;;;;;;;;;;;;10582015;28;20058;-82
2023/11/16 07:21:23;;;;;;;4.90;2.35;;;;;;;;;;10584006;28;20316;-82
2023/11/16 07:26:24;;;;;;;;;;;;;;;;;;10589292;28;20483;-82
2023/11/16 07:31:27;;;;;;;4.13;2.38;;;;;;;;;;10585894;28;19910;-82
2023/11/16 07:36:28;;;;;;;4.55;2.47;;;;;;;;;;10586978;28;20035;-82
2023/11/16 07:41:30;;;;;;;;;;;;;;;;;;10587399;28;20047;-80
2023/11/16 07:46:31;;;;;;;5.57;2.60;;;;;;;;;;10622685;28;19907;-82
2023/11/16 07:51:32;;;;;;;;;;;;;;;;;;10584753;28;20558;-82
2023/11/16 07:56:34;;;;;;;4.20;2.38;;;;;;;;;;10563266;28;19904;-81
2023/11/16 08:01:50;;;;;;;4.47;2.47;;;;;;;;;;10560480;28;20028;-81
2023/11/16 08:06:51;;;;;;;8.23;3.75;;;;;;;;;;10556430;28;20048;-80
2023/11/16 08:11:53;;;;;;;5.85;2.78;;;;;;;;;;10555387;28;20031;-85
2023/11/16 08:16:56;;;;;;;3.55;2.13;;;;;;;;;;10559176;28;20444;-85
2023/11/16 08:21:59;;;;;;;5.00;2.90;;;;;;;;;;10557224;28;20114;-85
2023/11/16 08:27:01;;;;;;;7.38;2.90;;;;;;;;;;10557030;28;20043;-85
2023/11/16 08:32:04;;;;;;;5.57;2.50;;;;;;;;;;10556520;28;20423;-85
2023/11/16 08:37:05;;;;;;;4.38;2.22;;;;;;;;;;10558681;28;20068;-85
2023/11/16 08:42:06;;;;;;;5.97;2.92;;;;;;;;;;10557927;28;20039;-85
2023/11/16 08:47:14;;;;;;;6.13;2.72;;;;;;;;;;10559307;28;20032;-86
2023/11/16 08:52:15;;;;;;;5.80;2.70;;;;;;;;;;10558287;28;20452;-85
2023/11/16 08:57:19;;;;;;;7.63;3.75;;;;;;;;;;10556507;28;20048;-84
2023/11/16 09:02:21;;;;;;;4.47;2.40;;;;;;;;;;10556917;28;20100;-84
2023/11/16 09:07:22;;;;;;;6.78;3.22;;;;;;;;;;10554376;28;20031;-84
2023/11/16 09:12:23;;;;;;;7.93;3.53;;;;;;;;;;10553533;28;20027;-84
2023/11/16 09:17:27;;;;;;;7.35;2.90;;;;;;;;;;10552296;28;20059;-84
2023/11/16 09:22:28;;;;;;;14.98;5.28;;;;;;;;;;10551308;28;20020;-85
2023/11/16 09:27:31;;;;;;;9.57;4.50;;;;;;;;;;10548525;28;20028;-83
2023/11/16 09:32:32;;;;;;;5.50;2.78;;;;;;;;;;10549126;28;20418;-83
2023/11/16 09:37:34;;;;;;;8.05;3.83;;;;;;;;;;10561806;28;20019;-81
2023/11/16 09:42:35;;;;;;;11.38;4.93;;;;;;;;;;10590556;28;20039;-83
2023/11/16 09:47:44;;;;;;;6.57;3.90;;;;;;;;;;10567092;28;20020;-83
2023/11/16 09:52:45;;;;;;;7.15;3.33;;;;;;;;;;10561084;28;20136;-83
2023/11/16 09:57:46;;;;;;;9.27;5.05;;;;;;;;;;10556278;28;20091;-83
2023/11/16 10:02:53;;;;;;;8.02;3.65;;;;;;;;;;10558520;28;20070;-84
2023/11/16 10:07:56;;;;;;;5.82;3.30;;;;;;;;;;10559163;28;20076;-84
2023/11/16 10:12:57;;;;;;;8.52;4.38;;;;;;;;;;10561042;28;20028;-84
2023/11/16 10:18:01;;;;;;;8.98;3.63;;;;;;;;;;10559245;28;20017;-84
2023/11/16 10:23:03;;;;;;;6.55;3.33;;;;;;;;;;10553237;28;20024;-83
2023/11/16 10:28:15;;;;;;;6.15;3.03;;;;;;;;;;10553213;28;20024;-82
2023/11/16 10:33:26;;;;;;;6.97;3.67;;;;;;;;;;10552499;28;20051;-83
2023/11/16 10:38:32;;;;;;;6.55;3.33;;;;;;;;;;10552963;28;20016;-82
2023/11/16 10:43:33;;;;;;;6.55;3.80;;;;;;;;;;10553570;28;20058;-82
2023/11/16 10:48:34;;;;;;;7.00;3.42;;;;;;;;;;10585472;28;20012;-83
2023/11/16 10:53:37;;;;;;;7.13;4.03;;;;;;;;;;10554904;28;20035;-80
2023/11/16 10:58:40;;;;;;;18.58;12.05;;;;;;;;;;10551215;28;20052;-82
2023/11/16 11:03:44;;;;;;;7.93;3.60;;;;;;;;;;10551418;28;20368;-82
2023/11/16 11:08:47;;;;;;;16.60;11.35;;;;;;;;;;10553348;28;20373;-81
2023/11/16 11:13:51;;;;;;;10.35;5.15;;;;;;;;;;10552741;28;20022;-81
2023/11/16 11:18:52;;;;;;;8.02;5.03;;;;;;;;;;10555308;28;20034;-80
2023/11/16 11:24:08;;;;;;;8.88;4.85;;;;;;;;;;10579461;28;20028;-80
2023/11/16 11:29:10;;;;;;;7.72;5.30;;;;;;;;;;10579767;28;20395;-81
2023/11/16 11:34:11;;;;;;;8.85;3.80;;;;;;;;;;10562195;28;20023;-83
2023/11/16 11:39:14;;;;;;;7.72;4.15;;;;;;;;;;10554183;28;20088;-79
2023/11/16 11:44:15;;;;;;;7.85;3.97;;;;;;;;;;10554772;28;20035;-80
2023/11/16 11:49:16;;;;;;;7.70;3.67;;;;;;;;;;10556431;28;20027;-79
2023/11/16 11:54:17;;;;;;;5.45;3.17;;;;;;;;;;10551134;28;20020;-80
2023/11/16 11:59:19;;;;;;;7.30;2.95;;;;;;;;;;10550292;28;20048;-80
2023/11/16 12:04:20;;;;;;;7.97;3.20;;;;;;;;;;10551870;28;20055;-79
2023/11/16 12:09:23;;;;;;;6.15;3.13;;;;;;;;;;10559684;28;20084;-79
2023/11/16 12:14:25;;;;;;;8.18;4.03;;;;;;;;;;10556986;28;20045;-80
2023/11/16 12:19:27;;;;;;;11.48;5.22;;;;;;;;;;10556461;28;20020;-80
2023/11/16 12:24:30;;;;;;;7.82;4.38;;;;;;;;;;10555023;28;20020;-80
2023/11/16 12:29:31;;;;;;;6.05;3.42;;;;;;;;;;10552597;28;20077;-80
2023/11/16 12:34:32;;;;;;;12.80;6.75;;;;;;;;;;10554875;28;20044;-80
2023/11/16 12:39:33;;;;;;;;;;;;;;;;;;10551584;28;20569;-81
2023/11/16 12:44:34;;;;;;;7.05;3.83;;;;;;;;;;10551150;28;19916;-81
2023/11/16 12:49:35;;;;;;;;;;;;;;;;;;10551609;28;20166;-81
2023/11/16 12:54:36;;;;;;;7.53;4.35;;;;;;;;;;10551423;28;19962;-81
2023/11/16 12:59:37;;;;;;;;;;;;;;;;;;10554062;28;20052;-82
2023/11/16 13:04:38;;;;;;;7.72;4.50;;;;;;;;;;10548814;28;19904;-80
2023/11/16 13:09:39;;;;;;;7.65;4.07;;;;;;;;;;10550533;28;20032;-80
2023/11/16 13:14:40;;;;;;;5.45;3.38;;;;;;;;;;10549554;28;20136;-80
2023/11/16 13:19:42;;;;;;;13.68;5.65;;;;;;;;;;10551009;28;20048;-81
2023/11/16 13:24:44;;;;;;;7.82;4.43;;;;;;;;;;10578464;28;20035;-82
2023/11/16 13:29:45;;;;;;;7.05;4.18;;;;;;;;;;10567823;28;20433;-81
2023/11/16 13:34:46;;;;;;;10.25;5.07;;;;;;;;;;10551680;28;20036;-81
2023/11/16 13:39:48;;;;;;;15.25;8.95;;;;;;;;;;10554922;28;20052;-81
2023/11/16 13:44:50;;;;;;;14.60;10.38;;;;;;;;;;10552692;28;20031;-82
2023/11/16 13:49:51;;;;;;;12.50;8.60;;;;;;;;;;10573267;28;20154;-79
2023/11/16 13:54:52;;;;;;;;;;;;;;;;;;10575878;28;20081;-81
2023/11/16 13:59:52;;;;;;;13.50;10.20;;;;;;;;;;10549926;28;19965;-80
2023/11/16 14:04:53;;;;;;;;;;;;;;;;;;10548975;28;20028;-81
2023/11/16 14:09:57;;;;;;;8.10;5.35;;;;;;;;;;10546732;28;19904;-81
2023/11/16 14:14:58;;;;;;;12.70;7.97;;;;;;;;;;10550219;28;20047;-81
2023/11/16 14:19:59;;;;;;;9.52;5.25;;;;;;;;;;10549049;28;20048;-82
2023/11/16 14:25:00;;;;;;;;;;;;;;;;;;10549297;28;20047;-83
2023/11/16 14:30:01;;;;;;;12.15;5.07;;;;;;;;;;10550107;28;19911;-81
2023/11/16 14:35:03;;;;;;;8.88;5.43;;;;;;;;;;10548498;28;20123;-83
2023/11/16 14:40:05;;;;;;;8.82;5.88;;;;;;;;;;10551582;28;20540;-81
2023/11/16 14:45:08;;;;;;;7.93;4.90;;;;;;;;;;10549594;28;20051;-83
2023/11/16 14:50:09;;;;;;;9.65;5.68;;;;;;;;;;10549153;28;20488;-81
2023/11/16 14:55:10;;;;;;;8.55;5.38;;;;;;;;;;10548369;28;20028;-80
2023/11/16 15:00:14;;;;;;;8.32;4.97;;;;;;;;;;10550373;28;20183;-80
2023/11/16 15:05:15;;;;;;;10.50;6.97;;;;;;;;;;10553952;28;20112;-82
2023/11/16 15:10:20;;;;;;;6.72;4.97;;;;;;;;;;10559475;28;20028;-84
2023/11/16 15:15:21;;;;;;;7.18;4.97;;;;;;;;;;10559034;28;20035;-82
2023/11/16 15:20:22;;;;;;;10.57;6.63;;;;;;;;;;10554512;28;20122;-83
2023/11/16 15:25:24;;;;;;;9.52;5.60;;;;;;;;;;10551804;28;20032;-82
2023/11/16 15:30:25;;;;;;;12.55;6.22;;;;;;;;;;10551822;28;20024;-83
2023/11/16 15:35:26;;;;;;;8.95;5.88;;;;;;;;;;10550171;28;20151;-81
2023/11/16 15:40:32;;;;;;;8.90;5.45;;;;;;;;;;10553156;28;20070;-82
2023/11/16 15:45:34;;;;;;;8.32;5.95;;;;;;;;;;10549903;28;20040;-83
2023/11/16 15:50:36;;;;;;;6.10;4.32;;;;;;;;;;10549446;28;20043;-81
2023/11/16 15:55:37;;;;;;;6.85;4.80;;;;;;;;;;10550764;28;20028;-82
2023/11/16 16:00:38;;;;;;;;;;;;;;;;;;10551931;28;20020;-82
2023/11/16 16:05:41;;;;;;;8.43;4.70;;;;;;;;;;10561195;28;19904;-83
2023/11/16 16:10:42;;;;;;;8.20;4.90;;;;;;;;;;10566170;28;20024;-82
2023/11/16 16:15:48;;;;;;;10.40;7.07;;;;;;;;;;10558144;28;20028;-83
2023/11/16 16:20:49;;;;;;;6.95;4.47;;;;;;;;;;10562181;28;20024;-82
2023/11/16 16:25:51;;;;;;;8.52;5.22;;;;;;;;;;10557868;28;20089;-82
2023/11/16 16:30:52;;;;;;;10.10;6.30;;;;;;;;;;10558495;28;20024;-82
2023/11/16 16:35:55;;;;;;;6.30;4.15;;;;;;;;;;10567163;28;20028;-81
2023/11/16 16:40:56;;;;;;;6.75;4.20;;;;;;;;;;10569773;28;20020;-81
2023/11/16 16:45:58;;;;;;;4.90;3.63;;;;;;;;;;10561397;28;20035;-82
2023/11/16 16:50:59;;;;;;;7.95;5.47;;;;;;;;;;10562450;28;20024;-81
2023/11/16 16:56:00;;;;;;;8.57;5.72;;;;;;;;;;10557228;28;20106;-83
2023/11/16 17:01:03;;;;;;;5.80;3.95;;;;;;;;;;10591170;28;20020;-82
2023/11/16 17:06:04;;;;;;;10.43;6.38;;;;;;;;;;10565063;28;20020;-81
2023/11/16 17:11:05;;;;;;;5.65;3.58;;;;;;;;;;10550987;28;20024;-82
2023/11/16 17:16:06;;;;;;;4.90;2.83;;;;;;;;;;10563271;28;20035;-83
2023/11/16 17:21:10;;;;;;;7.18;4.00;;;;;;;;;;10554048;28;20027;-82
2023/11/16 17:26:11;;;;;;;6.65;3.90;;;;;;;;;;10552715;28;20023;-82
2023/11/16 17:31:44;;;;;;;9.70;4.28;;;;;;;;;;10553502;28;20024;-83
2023/11/16 18:17:20;;;;;;;7.75;4.53;;;;;;;;;;10593394;28;20039;-87
2023/11/16 18:46:07;;;;;;;4.15;3.35;;;;;;;;;;10337606;28;20038;-87
